sensor_id;sensor_type;location;lat;lon;timestamp;P1;durP1;ratioP1;P2;durP2;ratioP2
11827;SDS011;5971;49.646;8.568;2022-09-30T00:00:41;6.85;;;2.47;;
11827;SDS011;5971;49.646;8.568;2022-09-30T00:03:43;4.60;;;2.80;;
11827;SDS011;5971;49.646;8.568;2022-09-30T00:06:44;5.28;;;2.40;;
11827;SDS011;5971;49.646;8.568;2022-09-30T00:09:46;5.82;;;3.42;;
11827;SDS011;5971;49.646;8.568;2022-09-30T00:12:50;5.43;;;2.92;;
11827;SDS011;5971;49.646;8.568;2022-09-30T00:15:51;5.88;;;2.33;;
11827;SDS011;5971;49.646;8.568;2022-09-30T00:18:53;8.43;;;3.92;;
11827;SDS011;5971;49.646;8.568;2022-09-30T00:21:55;6.07;;;3.28;;
11827;SDS011;5971;49.646;8.568;2022-09-30T00:24:56;4.95;;;2.50;;
11827;SDS011;5971;49.646;8.568;2022-09-30T00:27:57;5.05;;;2.60;;
11827;SDS011;5971;49.646;8.568;2022-09-30T00:30:59;4.10;;;2.58;;
11827;SDS011;5971;49.646;8.568;2022-09-30T00:34:01;6.85;;;2.88;;
11827;SDS011;5971;49.646;8.568;2022-09-30T00:37:11;4.18;;;2.55;;
11827;SDS011;5971;49.646;8.568;2022-09-30T00:40:15;4.38;;;3.03;;
11827;SDS011;5971;49.646;8.568;2022-09-30T00:43:17;5.65;;;2.53;;
11827;SDS011;5971;49.646;8.568;2022-09-30T00:46:27;6.57;;;2.90;;
11827;SDS011;5971;49.646;8.568;2022-09-30T00:49:30;5.70;;;2.90;;
11827;SDS011;5971;49.646;8.568;2022-09-30T00:52:31;6.38;;;2.70;;
11827;SDS011;5971;49.646;8.568;2022-09-30T00:55:53;5.13;;;2.50;;
11827;SDS011;5971;49.646;8.568;2022-09-30T00:59:31;5.13;;;2.95;;
11827;SDS011;5971;49.646;8.568;2022-09-30T01:02:24;7.30;;;2.65;;
11827;SDS011;5971;49.646;8.568;2022-09-30T01:05:25;4.10;;;2.22;;
11827;SDS011;5971;49.646;8.568;2022-09-30T01:08:27;5.07;;;2.72;;
11827;SDS011;5971;49.646;8.568;2022-09-30T01:11:30;5.28;;;2.95;;
11827;SDS011;5971;49.646;8.568;2022-09-30T01:14:31;5.93;;;3.05;;
11827;SDS011;5971;49.646;8.568;2022-09-30T01:24:29;7.68;;;2.95;;
11827;SDS011;5971;49.646;8.568;2022-09-30T01:27:38;5.70;;;3.10;;
11827;SDS011;5971;49.646;8.568;2022-09-30T01:31:06;5.40;;;2.85;;
11827;SDS011;5971;49.646;8.568;2022-09-30T01:43:26;6.22;;;2.65;;
11827;SDS011;5971;49.646;8.568;2022-09-30T01:46:50;5.70;;;3.08;;
11827;SDS011;5971;49.646;8.568;2022-09-30T01:50:01;5.18;;;2.70;;
11827;SDS011;5971;49.646;8.568;2022-09-30T01:53:27;6.82;;;3.00;;
11827;SDS011;5971;49.646;8.568;2022-09-30T01:59:31;7.00;;;3.60;;
11827;SDS011;5971;49.646;8.568;2022-09-30T02:02:35;5.30;;;3.05;;
11827;SDS011;5971;49.646;8.568;2022-09-30T02:05:41;6.40;;;2.95;;
11827;SDS011;5971;49.646;8.568;2022-09-30T02:09:01;6.90;;;3.63;;
11827;SDS011;5971;49.646;8.568;2022-09-30T02:12:05;6.05;;;3.33;;
11827;SDS011;5971;49.646;8.568;2022-09-30T02:15:08;5.30;;;2.85;;
11827;SDS011;5971;49.646;8.568;2022-09-30T02:18:19;6.28;;;3.38;;
11827;SDS011;5971;49.646;8.568;2022-09-30T02:21:24;5.97;;;3.47;;
11827;SDS011;5971;49.646;8.568;2022-09-30T02:24:28;6.53;;;3.30;;
11827;SDS011;5971;49.646;8.568;2022-09-30T02:27:33;5.55;;;3.20;;
11827;SDS011;5971;49.646;8.568;2022-09-30T02:30:43;5.00;;;3.25;;
11827;SDS011;5971;49.646;8.568;2022-09-30T02:33:49;5.03;;;2.97;;
11827;SDS011;5971;49.646;8.568;2022-09-30T02:43:18;4.82;;;3.30;;
11827;SDS011;5971;49.646;8.568;2022-09-30T02:49:35;5.85;;;3.10;;
11827;SDS011;5971;49.646;8.568;2022-09-30T02:52:50;5.53;;;2.67;;
11827;SDS011;5971;49.646;8.568;2022-09-30T02:56:13;6.80;;;2.45;;
11827;SDS011;5971;49.646;8.568;2022-09-30T02:59:17;4.80;;;2.75;;
11827;SDS011;5971;49.646;8.568;2022-09-30T03:02:19;6.43;;;3.33;;
11827;SDS011;5971;49.646;8.568;2022-09-30T03:05:21;8.25;;;3.17;;
11827;SDS011;5971;49.646;8.568;2022-09-30T03:08:22;5.40;;;3.08;;
11827;SDS011;5971;49.646;8.568;2022-09-30T03:11:24;7.82;;;3.33;;
11827;SDS011;5971;49.646;8.568;2022-09-30T03:23:52;5.70;;;3.50;;
11827;SDS011;5971;49.646;8.568;2022-09-30T03:26:59;6.68;;;3.20;;
11827;SDS011;5971;49.646;8.568;2022-09-30T03:30:08;5.00;;;2.70;;
11827;SDS011;5971;49.646;8.568;2022-09-30T03:33:14;5.82;;;2.97;;
11827;SDS011;5971;49.646;8.568;2022-09-30T03:36:23;5.38;;;2.80;;
11827;SDS011;5971;49.646;8.568;2022-09-30T03:39:32;5.70;;;3.33;;
11827;SDS011;5971;49.646;8.568;2022-09-30T03:42:38;7.05;;;2.97;;
11827;SDS011;5971;49.646;8.568;2022-09-30T03:45:44;5.75;;;3.78;;
11827;SDS011;5971;49.646;8.568;2022-09-30T03:48:48;6.47;;;3.13;;
11827;SDS011;5971;49.646;8.568;2022-09-30T03:51:50;7.22;;;3.78;;
11827;SDS011;5971;49.646;8.568;2022-09-30T03:54:53;6.75;;;3.83;;
11827;SDS011;5971;49.646;8.568;2022-09-30T03:57:55;5.72;;;3.20;;
11827;SDS011;5971;49.646;8.568;2022-09-30T04:00:57;6.85;;;2.78;;
11827;SDS011;5971;49.646;8.568;2022-09-30T04:03:59;8.13;;;3.38;;
11827;SDS011;5971;49.646;8.568;2022-09-30T04:07:00;7.43;;;3.10;;
11827;SDS011;5971;49.646;8.568;2022-09-30T04:10:01;6.00;;;3.25;;
11827;SDS011;5971;49.646;8.568;2022-09-30T04:13:03;5.55;;;3.38;;
11827;SDS011;5971;49.646;8.568;2022-09-30T04:16:04;5.68;;;3.35;;
11827;SDS011;5971;49.646;8.568;2022-09-30T04:19:06;6.55;;;3.70;;
11827;SDS011;5971;49.646;8.568;2022-09-30T04:22:08;6.03;;;3.53;;
11827;SDS011;5971;49.646;8.568;2022-09-30T04:25:09;4.28;;;2.60;;
11827;SDS011;5971;49.646;8.568;2022-09-30T04:28:11;4.18;;;2.63;;
11827;SDS011;5971;49.646;8.568;2022-09-30T04:31:12;5.53;;;3.00;;
11827;SDS011;5971;49.646;8.568;2022-09-30T04:34:14;10.95;;;3.63;;
11827;SDS011;5971;49.646;8.568;2022-09-30T04:37:15;6.65;;;3.78;;
11827;SDS011;5971;49.646;8.568;2022-09-30T04:40:16;5.63;;;3.08;;
11827;SDS011;5971;49.646;8.568;2022-09-30T04:43:18;5.57;;;2.97;;
11827;SDS011;5971;49.646;8.568;2022-09-30T04:46:19;5.60;;;3.33;;
11827;SDS011;5971;49.646;8.568;2022-09-30T04:49:21;5.88;;;3.13;;
11827;SDS011;5971;49.646;8.568;2022-09-30T04:52:22;4.72;;;2.75;;
11827;SDS011;5971;49.646;8.568;2022-09-30T04:55:23;5.90;;;3.25;;
11827;SDS011;5971;49.646;8.568;2022-09-30T04:58:25;4.53;;;2.80;;
11827;SDS011;5971;49.646;8.568;2022-09-30T05:01:26;5.18;;;2.97;;
11827;SDS011;5971;49.646;8.568;2022-09-30T05:04:28;4.97;;;2.60;;
11827;SDS011;5971;49.646;8.568;2022-09-30T05:07:32;7.07;;;3.22;;
11827;SDS011;5971;49.646;8.568;2022-09-30T05:10:34;4.63;;;3.00;;
11827;SDS011;5971;49.646;8.568;2022-09-30T05:13:36;5.88;;;3.30;;
11827;SDS011;5971;49.646;8.568;2022-09-30T05:16:37;6.10;;;3.20;;
11827;SDS011;5971;49.646;8.568;2022-09-30T05:19:38;4.47;;;3.90;;
11827;SDS011;5971;49.646;8.568;2022-09-30T05:22:40;5.63;;;2.78;;
11827;SDS011;5971;49.646;8.568;2022-09-30T05:25:41;5.22;;;3.28;;
11827;SDS011;5971;49.646;8.568;2022-09-30T05:28:42;4.82;;;2.67;;
11827;SDS011;5971;49.646;8.568;2022-09-30T05:31:43;4.78;;;2.63;;
11827;SDS011;5971;49.646;8.568;2022-09-30T05:34:45;5.35;;;3.22;;
11827;SDS011;5971;49.646;8.568;2022-09-30T05:37:47;6.95;;;3.85;;
11827;SDS011;5971;49.646;8.568;2022-09-30T05:40:48;5.07;;;3.10;;
11827;SDS011;5971;49.646;8.568;2022-09-30T05:43:50;8.38;;;3.28;;
11827;SDS011;5971;49.646;8.568;2022-09-30T05:46:51;6.93;;;3.75;;
11827;SDS011;5971;49.646;8.568;2022-09-30T05:49:52;5.45;;;3.38;;
11827;SDS011;5971;49.646;8.568;2022-09-30T05:52:56;5.45;;;3.30;;
11827;SDS011;5971;49.646;8.568;2022-09-30T05:55:57;9.77;;;3.78;;
11827;SDS011;5971;49.646;8.568;2022-09-30T05:58:59;11.10;;;3.30;;
11827;SDS011;5971;49.646;8.568;2022-09-30T06:02:01;7.28;;;3.83;;
11827;SDS011;5971;49.646;8.568;2022-09-30T06:05:06;6.40;;;3.38;;
11827;SDS011;5971;49.646;8.568;2022-09-30T06:08:07;7.13;;;3.95;;
11827;SDS011;5971;49.646;8.568;2022-09-30T06:11:09;5.53;;;3.00;;
11827;SDS011;5971;49.646;8.568;2022-09-30T06:14:12;8.30;;;3.03;;
11827;SDS011;5971;49.646;8.568;2022-09-30T06:17:13;6.60;;;3.33;;
11827;SDS011;5971;49.646;8.568;2022-09-30T06:20:15;6.53;;;3.00;;
11827;SDS011;5971;49.646;8.568;2022-09-30T06:23:17;6.53;;;3.95;;
11827;SDS011;5971;49.646;8.568;2022-09-30T06:26:18;5.60;;;3.55;;
11827;SDS011;5971;49.646;8.568;2022-09-30T06:29:19;7.05;;;2.90;;
11827;SDS011;5971;49.646;8.568;2022-09-30T06:32:21;7.90;;;3.72;;
11827;SDS011;5971;49.646;8.568;2022-09-30T06:35:22;6.75;;;3.72;;
11827;SDS011;5971;49.646;8.568;2022-09-30T06:38:26;7.55;;;3.85;;
11827;SDS011;5971;49.646;8.568;2022-09-30T06:41:28;7.03;;;3.72;;
11827;SDS011;5971;49.646;8.568;2022-09-30T06:44:30;14.65;;;4.70;;
11827;SDS011;5971;49.646;8.568;2022-09-30T06:47:32;7.65;;;4.35;;
11827;SDS011;5971;49.646;8.568;2022-09-30T06:50:33;8.45;;;4.20;;
11827;SDS011;5971;49.646;8.568;2022-09-30T06:53:36;6.80;;;3.78;;
11827;SDS011;5971;49.646;8.568;2022-09-30T06:56:37;8.25;;;4.65;;
11827;SDS011;5971;49.646;8.568;2022-09-30T06:59:38;12.18;;;5.60;;
11827;SDS011;5971;49.646;8.568;2022-09-30T07:02:39;7.28;;;4.00;;
11827;SDS011;5971;49.646;8.568;2022-09-30T07:05:41;11.18;;;5.20;;
11827;SDS011;5971;49.646;8.568;2022-09-30T07:08:42;10.07;;;5.32;;
11827;SDS011;5971;49.646;8.568;2022-09-30T07:11:43;11.18;;;5.22;;
11827;SDS011;5971;49.646;8.568;2022-09-30T07:14:44;8.43;;;4.25;;
11827;SDS011;5971;49.646;8.568;2022-09-30T07:17:50;7.65;;;4.03;;
11827;SDS011;5971;49.646;8.568;2022-09-30T07:20:52;8.18;;;4.70;;
11827;SDS011;5971;49.646;8.568;2022-09-30T07:23:54;11.80;;;4.93;;
11827;SDS011;5971;49.646;8.568;2022-09-30T07:26:56;9.35;;;4.70;;
11827;SDS011;5971;49.646;8.568;2022-09-30T07:29:58;8.82;;;4.43;;
11827;SDS011;5971;49.646;8.568;2022-09-30T07:33:20;7.38;;;4.25;;
11827;SDS011;5971;49.646;8.568;2022-09-30T07:36:22;6.72;;;3.92;;
11827;SDS011;5971;49.646;8.568;2022-09-30T07:39:33;7.82;;;4.00;;
11827;SDS011;5971;49.646;8.568;2022-09-30T07:42:38;9.13;;;3.95;;
11827;SDS011;5971;49.646;8.568;2022-09-30T07:45:46;7.25;;;3.95;;
11827;SDS011;5971;49.646;8.568;2022-09-30T07:48:47;7.82;;;4.20;;
11827;SDS011;5971;49.646;8.568;2022-09-30T07:54:53;8.02;;;4.63;;
11827;SDS011;5971;49.646;8.568;2022-09-30T07:57:55;7.47;;;4.40;;
11827;SDS011;5971;49.646;8.568;2022-09-30T08:00:57;7.60;;;4.45;;
11827;SDS011;5971;49.646;8.568;2022-09-30T08:03:59;7.90;;;3.78;;
11827;SDS011;5971;49.646;8.568;2022-09-30T08:07:02;8.88;;;4.43;;
11827;SDS011;5971;49.646;8.568;2022-09-30T08:10:03;10.75;;;5.50;;
11827;SDS011;5971;49.646;8.568;2022-09-30T08:13:05;7.93;;;4.57;;
11827;SDS011;5971;49.646;8.568;2022-09-30T08:16:06;10.55;;;4.18;;
11827;SDS011;5971;49.646;8.568;2022-09-30T08:19:08;11.70;;;4.70;;
11827;SDS011;5971;49.646;8.568;2022-09-30T08:22:12;6.82;;;4.32;;
11827;SDS011;5971;49.646;8.568;2022-09-30T08:25:15;9.18;;;4.50;;
11827;SDS011;5971;49.646;8.568;2022-09-30T08:28:16;8.68;;;4.70;;
11827;SDS011;5971;49.646;8.568;2022-09-30T08:31:22;11.48;;;3.75;;
11827;SDS011;5971;49.646;8.568;2022-09-30T08:34:24;9.32;;;4.80;;
11827;SDS011;5971;49.646;8.568;2022-09-30T08:37:25;7.82;;;5.15;;
11827;SDS011;5971;49.646;8.568;2022-09-30T08:40:28;8.35;;;4.38;;
11827;SDS011;5971;49.646;8.568;2022-09-30T08:43:33;7.90;;;5.25;;
11827;SDS011;5971;49.646;8.568;2022-09-30T08:52:52;8.25;;;5.60;;
11827;SDS011;5971;49.646;8.568;2022-09-30T08:55:57;10.52;;;4.80;;
11827;SDS011;5971;49.646;8.568;2022-09-30T09:02:33;8.93;;;5.50;;
11827;SDS011;5971;49.646;8.568;2022-09-30T09:05:52;8.32;;;4.22;;
11827;SDS011;5971;49.646;8.568;2022-09-30T09:09:11;7.97;;;5.32;;
11827;SDS011;5971;49.646;8.568;2022-09-30T09:12:30;8.98;;;4.63;;
11827;SDS011;5971;49.646;8.568;2022-09-30T09:16:01;8.65;;;5.45;;
11827;SDS011;5971;49.646;8.568;2022-09-30T09:19:01;13.88;;;6.00;;
11827;SDS011;5971;49.646;8.568;2022-09-30T09:22:03;8.25;;;4.38;;
11827;SDS011;5971;49.646;8.568;2022-09-30T09:25:08;10.13;;;5.47;;
11827;SDS011;5971;49.646;8.568;2022-09-30T09:28:16;8.80;;;5.03;;
11827;SDS011;5971;49.646;8.568;2022-09-30T09:31:22;7.45;;;5.00;;
11827;SDS011;5971;49.646;8.568;2022-09-30T09:34:25;8.35;;;4.72;;
11827;SDS011;5971;49.646;8.568;2022-09-30T09:37:39;9.80;;;6.30;;
11827;SDS011;5971;49.646;8.568;2022-09-30T09:41:17;9.85;;;6.13;;
11827;SDS011;5971;49.646;8.568;2022-09-30T09:47:41;8.75;;;5.13;;
11827;SDS011;5971;49.646;8.568;2022-09-30T09:51:05;11.15;;;5.28;;
11827;SDS011;5971;49.646;8.568;2022-09-30T09:54:12;10.38;;;5.93;;
11827;SDS011;5971;49.646;8.568;2022-09-30T09:57:17;10.45;;;5.43;;
11827;SDS011;5971;49.646;8.568;2022-09-30T10:00:22;8.05;;;4.00;;
11827;SDS011;5971;49.646;8.568;2022-09-30T10:03:42;7.07;;;4.70;;
11827;SDS011;5971;49.646;8.568;2022-09-30T10:07:30;6.03;;;3.40;;
11827;SDS011;5971;49.646;8.568;2022-09-30T10:10:16;6.97;;;4.75;;
11827;SDS011;5971;49.646;8.568;2022-09-30T10:13:24;6.55;;;3.60;;
11827;SDS011;5971;49.646;8.568;2022-09-30T10:16:27;6.40;;;5.22;;
11827;SDS011;5971;49.646;8.568;2022-09-30T10:19:32;5.53;;;3.50;;
11827;SDS011;5971;49.646;8.568;2022-09-30T10:25:35;5.43;;;3.45;;
11827;SDS011;5971;49.646;8.568;2022-09-30T10:28:50;5.70;;;3.40;;
11827;SDS011;5971;49.646;8.568;2022-09-30T10:31:51;7.60;;;3.80;;
11827;SDS011;5971;49.646;8.568;2022-09-30T10:35:02;3.88;;;2.70;;
11827;SDS011;5971;49.646;8.568;2022-09-30T10:38:04;5.03;;;3.25;;
11827;SDS011;5971;49.646;8.568;2022-09-30T10:41:06;5.47;;;3.25;;
11827;SDS011;5971;49.646;8.568;2022-09-30T10:44:13;4.47;;;3.15;;
11827;SDS011;5971;49.646;8.568;2022-09-30T10:47:17;4.78;;;3.25;;
11827;SDS011;5971;49.646;8.568;2022-09-30T10:50:20;4.20;;;3.00;;
11827;SDS011;5971;49.646;8.568;2022-09-30T10:53:25;3.92;;;2.78;;
11827;SDS011;5971;49.646;8.568;2022-09-30T10:56:39;5.15;;;3.17;;
11827;SDS011;5971;49.646;8.568;2022-09-30T10:59:41;4.75;;;2.97;;
11827;SDS011;5971;49.646;8.568;2022-09-30T11:02:45;5.03;;;3.20;;
11827;SDS011;5971;49.646;8.568;2022-09-30T11:05:54;4.07;;;2.85;;
11827;SDS011;5971;49.646;8.568;2022-09-30T11:09:08;4.50;;;2.97;;
11827;SDS011;5971;49.646;8.568;2022-09-30T11:12:58;4.05;;;2.78;;
11827;SDS011;5971;49.646;8.568;2022-09-30T11:15:39;3.30;;;2.45;;
11827;SDS011;5971;49.646;8.568;2022-09-30T11:18:44;3.40;;;2.25;;
11827;SDS011;5971;49.646;8.568;2022-09-30T11:24:53;3.65;;;2.38;;
11827;SDS011;5971;49.646;8.568;2022-09-30T11:28:07;4.50;;;2.90;;
11827;SDS011;5971;49.646;8.568;2022-09-30T11:50:06;4.28;;;2.92;;
11827;SDS011;5971;49.646;8.568;2022-09-30T11:53:22;3.75;;;2.70;;
11827;SDS011;5971;49.646;8.568;2022-09-30T11:56:35;4.10;;;2.63;;
11827;SDS011;5971;49.646;8.568;2022-09-30T12:02:47;3.92;;;2.70;;
11827;SDS011;5971;49.646;8.568;2022-09-30T12:05:57;4.47;;;3.08;;
11827;SDS011;5971;49.646;8.568;2022-09-30T12:09:04;3.97;;;2.55;;
11827;SDS011;5971;49.646;8.568;2022-09-30T12:12:07;3.72;;;2.40;;
11827;SDS011;5971;49.646;8.568;2022-09-30T12:15:17;3.55;;;2.30;;
11827;SDS011;5971;49.646;8.568;2022-09-30T12:21:22;4.47;;;2.60;;
11827;SDS011;5971;49.646;8.568;2022-09-30T12:27:29;4.47;;;3.10;;
11827;SDS011;5971;49.646;8.568;2022-09-30T12:30:35;5.03;;;3.30;;
11827;SDS011;5971;49.646;8.568;2022-09-30T12:33:51;4.53;;;2.78;;
11827;SDS011;5971;49.646;8.568;2022-09-30T12:37:03;5.95;;;3.00;;
11827;SDS011;5971;49.646;8.568;2022-09-30T12:49:11;6.35;;;4.38;;
11827;SDS011;5971;49.646;8.568;2022-09-30T12:52:18;5.80;;;3.67;;
11827;SDS011;5971;49.646;8.568;2022-09-30T12:55:28;4.43;;;3.33;;
11827;SDS011;5971;49.646;8.568;2022-09-30T12:58:32;4.80;;;3.38;;
11827;SDS011;5971;49.646;8.568;2022-09-30T13:01:35;4.82;;;3.42;;
11827;SDS011;5971;49.646;8.568;2022-09-30T13:04:38;5.50;;;3.70;;
11827;SDS011;5971;49.646;8.568;2022-09-30T13:11:04;4.95;;;3.63;;
11827;SDS011;5971;49.646;8.568;2022-09-30T13:26:39;8.80;;;5.28;;
11827;SDS011;5971;49.646;8.568;2022-09-30T13:29:45;6.97;;;5.03;;
11827;SDS011;5971;49.646;8.568;2022-09-30T13:32:48;7.35;;;4.88;;
11827;SDS011;5971;49.646;8.568;2022-09-30T13:36:05;6.22;;;4.43;;
11827;SDS011;5971;49.646;8.568;2022-09-30T13:42:28;6.25;;;4.45;;
11827;SDS011;5971;49.646;8.568;2022-09-30T13:45:32;7.47;;;3.83;;
11827;SDS011;5971;49.646;8.568;2022-09-30T13:48:37;7.35;;;5.03;;
11827;SDS011;5971;49.646;8.568;2022-09-30T13:51:40;5.38;;;3.72;;
11827;SDS011;5971;49.646;8.568;2022-09-30T13:54:42;4.38;;;3.20;;
11827;SDS011;5971;49.646;8.568;2022-09-30T13:57:58;4.72;;;3.42;;
11827;SDS011;5971;49.646;8.568;2022-09-30T14:01:06;4.85;;;3.60;;
11827;SDS011;5971;49.646;8.568;2022-09-30T14:07:41;6.13;;;4.45;;
11827;SDS011;5971;49.646;8.568;2022-09-30T14:14:12;4.55;;;3.42;;
11827;SDS011;5971;49.646;8.568;2022-09-30T14:20:50;4.97;;;3.40;;
11827;SDS011;5971;49.646;8.568;2022-09-30T14:24:39;5.20;;;3.03;;
11827;SDS011;5971;49.646;8.568;2022-09-30T14:30:23;4.82;;;2.83;;
11827;SDS011;5971;49.646;8.568;2022-09-30T14:33:24;4.60;;;3.00;;
11827;SDS011;5971;49.646;8.568;2022-09-30T14:36:28;4.93;;;3.00;;
11827;SDS011;5971;49.646;8.568;2022-09-30T14:39:30;5.68;;;2.63;;
11827;SDS011;5971;49.646;8.568;2022-09-30T14:42:33;4.15;;;2.35;;
11827;SDS011;5971;49.646;8.568;2022-09-30T14:45:36;3.40;;;2.50;;
11827;SDS011;5971;49.646;8.568;2022-09-30T14:48:39;4.10;;;2.92;;
11827;SDS011;5971;49.646;8.568;2022-09-30T14:51:43;4.32;;;2.40;;
11827;SDS011;5971;49.646;8.568;2022-09-30T14:54:45;2.80;;;1.90;;
11827;SDS011;5971;49.646;8.568;2022-09-30T14:57:47;3.42;;;1.70;;
11827;SDS011;5971;49.646;8.568;2022-09-30T15:00:57;4.35;;;1.88;;
11827;SDS011;5971;49.646;8.568;2022-09-30T15:04:23;3.17;;;2.00;;
11827;SDS011;5971;49.646;8.568;2022-09-30T15:07:21;3.67;;;2.10;;
11827;SDS011;5971;49.646;8.568;2022-09-30T15:10:22;2.80;;;2.00;;
11827;SDS011;5971;49.646;8.568;2022-09-30T15:13:26;3.70;;;1.98;;
11827;SDS011;5971;49.646;8.568;2022-09-30T15:16:28;4.75;;;2.15;;
11827;SDS011;5971;49.646;8.568;2022-09-30T15:19:32;3.40;;;1.73;;
11827;SDS011;5971;49.646;8.568;2022-09-30T15:22:34;3.03;;;1.65;;
11827;SDS011;5971;49.646;8.568;2022-09-30T15:25:35;4.00;;;2.55;;
11827;SDS011;5971;49.646;8.568;2022-09-30T15:28:37;2.88;;;1.55;;
11827;SDS011;5971;49.646;8.568;2022-09-30T15:31:42;2.95;;;1.80;;
11827;SDS011;5971;49.646;8.568;2022-09-30T15:34:44;3.17;;;1.88;;
11827;SDS011;5971;49.646;8.568;2022-09-30T15:37:46;3.08;;;1.95;;
11827;SDS011;5971;49.646;8.568;2022-09-30T15:40:49;2.50;;;1.60;;
11827;SDS011;5971;49.646;8.568;2022-09-30T15:43:57;2.10;;;1.38;;
11827;SDS011;5971;49.646;8.568;2022-09-30T15:47:01;3.60;;;2.20;;
11827;SDS011;5971;49.646;8.568;2022-09-30T15:50:03;3.75;;;1.67;;
11827;SDS011;5971;49.646;8.568;2022-09-30T15:53:12;3.30;;;2.10;;
11827;SDS011;5971;49.646;8.568;2022-09-30T15:56:25;3.85;;;2.22;;
11827;SDS011;5971;49.646;8.568;2022-09-30T16:02:51;3.55;;;2.20;;
11827;SDS011;5971;49.646;8.568;2022-09-30T16:05:53;3.45;;;2.28;;
11827;SDS011;5971;49.646;8.568;2022-09-30T16:08:56;3.65;;;2.45;;
11827;SDS011;5971;49.646;8.568;2022-09-30T16:15:11;5.38;;;3.03;;
11827;SDS011;5971;49.646;8.568;2022-09-30T16:18:17;5.30;;;2.88;;
11827;SDS011;5971;49.646;8.568;2022-09-30T16:21:27;4.45;;;2.50;;
11827;SDS011;5971;49.646;8.568;2022-09-30T16:27:33;4.90;;;2.03;;
11827;SDS011;5971;49.646;8.568;2022-09-30T16:30:34;4.10;;;2.70;;
11827;SDS011;5971;49.646;8.568;2022-09-30T16:33:39;4.97;;;2.05;;
11827;SDS011;5971;49.646;8.568;2022-09-30T16:36:41;4.13;;;1.95;;
11827;SDS011;5971;49.646;8.568;2022-09-30T16:39:42;4.88;;;2.10;;
11827;SDS011;5971;49.646;8.568;2022-09-30T16:42:43;3.80;;;2.08;;
11827;SDS011;5971;49.646;8.568;2022-09-30T16:45:45;7.13;;;2.70;;
11827;SDS011;5971;49.646;8.568;2022-09-30T16:48:46;3.60;;;2.10;;
11827;SDS011;5971;49.646;8.568;2022-09-30T16:51:47;4.20;;;2.20;;
11827;SDS011;5971;49.646;8.568;2022-09-30T16:54:49;5.20;;;2.50;;
11827;SDS011;5971;49.646;8.568;2022-09-30T16:57:50;4.25;;;2.08;;
11827;SDS011;5971;49.646;8.568;2022-09-30T17:00:52;4.15;;;2.20;;
11827;SDS011;5971;49.646;8.568;2022-09-30T17:03:54;4.55;;;2.33;;
11827;SDS011;5971;49.646;8.568;2022-09-30T17:06:56;5.15;;;2.60;;
11827;SDS011;5971;49.646;8.568;2022-09-30T17:09:57;4.18;;;1.95;;
11827;SDS011;5971;49.646;8.568;2022-09-30T17:12:59;5.32;;;2.80;;
11827;SDS011;5971;49.646;8.568;2022-09-30T17:16:01;4.32;;;2.30;;
11827;SDS011;5971;49.646;8.568;2022-09-30T17:19:02;3.63;;;2.20;;
11827;SDS011;5971;49.646;8.568;2022-09-30T17:22:04;6.30;;;2.60;;
11827;SDS011;5971;49.646;8.568;2022-09-30T17:25:06;9.23;;;3.30;;
11827;SDS011;5971;49.646;8.568;2022-09-30T17:28:10;6.55;;;3.28;;
11827;SDS011;5971;49.646;8.568;2022-09-30T17:31:12;6.68;;;3.53;;
11827;SDS011;5971;49.646;8.568;2022-09-30T17:34:13;6.93;;;3.67;;
11827;SDS011;5971;49.646;8.568;2022-09-30T17:37:14;9.07;;;3.65;;
11827;SDS011;5971;49.646;8.568;2022-09-30T17:40:16;7.25;;;3.50;;
11827;SDS011;5971;49.646;8.568;2022-09-30T17:43:35;4.78;;;3.03;;
11827;SDS011;5971;49.646;8.568;2022-09-30T17:46:41;8.02;;;3.47;;
11827;SDS011;5971;49.646;8.568;2022-09-30T17:49:42;5.70;;;2.97;;
11827;SDS011;5971;49.646;8.568;2022-09-30T17:52:44;7.70;;;3.40;;
11827;SDS011;5971;49.646;8.568;2022-09-30T17:55:45;6.75;;;3.20;;
11827;SDS011;5971;49.646;8.568;2022-09-30T17:58:48;6.85;;;2.95;;
11827;SDS011;5971;49.646;8.568;2022-09-30T18:01:50;6.05;;;2.90;;
11827;SDS011;5971;49.646;8.568;2022-09-30T18:04:52;4.78;;;2.95;;
11827;SDS011;5971;49.646;8.568;2022-09-30T18:07:54;7.50;;;4.30;;
11827;SDS011;5971;49.646;8.568;2022-09-30T18:10:57;7.70;;;3.90;;
11827;SDS011;5971;49.646;8.568;2022-09-30T18:13:58;7.93;;;4.28;;
11827;SDS011;5971;49.646;8.568;2022-09-30T18:17:03;8.82;;;3.97;;
11827;SDS011;5971;49.646;8.568;2022-09-30T18:20:04;11.70;;;6.18;;
11827;SDS011;5971;49.646;8.568;2022-09-30T18:23:06;12.20;;;7.13;;
11827;SDS011;5971;49.646;8.568;2022-09-30T18:26:07;8.57;;;5.68;;
11827;SDS011;5971;49.646;8.568;2022-09-30T18:29:09;7.75;;;4.35;;
11827;SDS011;5971;49.646;8.568;2022-09-30T18:32:10;8.52;;;3.95;;
11827;SDS011;5971;49.646;8.568;2022-09-30T18:35:11;7.43;;;4.00;;
11827;SDS011;5971;49.646;8.568;2022-09-30T18:38:13;6.93;;;3.38;;
11827;SDS011;5971;49.646;8.568;2022-09-30T18:41:15;7.00;;;2.90;;
11827;SDS011;5971;49.646;8.568;2022-09-30T18:44:16;5.47;;;2.78;;
11827;SDS011;5971;49.646;8.568;2022-09-30T18:47:17;6.18;;;3.40;;
11827;SDS011;5971;49.646;8.568;2022-09-30T18:50:18;5.88;;;3.15;;
11827;SDS011;5971;49.646;8.568;2022-09-30T18:53:22;6.40;;;3.42;;
11827;SDS011;5971;49.646;8.568;2022-09-30T18:56:24;7.20;;;3.88;;
11827;SDS011;5971;49.646;8.568;2022-09-30T18:59:26;7.45;;;3.90;;
11827;SDS011;5971;49.646;8.568;2022-09-30T19:02:28;6.03;;;3.40;;
11827;SDS011;5971;49.646;8.568;2022-09-30T19:05:29;6.55;;;3.63;;
11827;SDS011;5971;49.646;8.568;2022-09-30T19:08:31;6.00;;;3.50;;
11827;SDS011;5971;49.646;8.568;2022-09-30T19:11:32;9.48;;;4.03;;
11827;SDS011;5971;49.646;8.568;2022-09-30T19:14:35;7.13;;;3.60;;
11827;SDS011;5971;49.646;8.568;2022-09-30T19:17:37;6.85;;;4.40;;
11827;SDS011;5971;49.646;8.568;2022-09-30T19:20:38;6.82;;;3.50;;
11827;SDS011;5971;49.646;8.568;2022-09-30T19:23:40;6.82;;;3.78;;
11827;SDS011;5971;49.646;8.568;2022-09-30T19:26:42;6.32;;;3.50;;
11827;SDS011;5971;49.646;8.568;2022-09-30T19:29:43;6.43;;;3.55;;
11827;SDS011;5971;49.646;8.568;2022-09-30T19:32:44;6.25;;;3.78;;
11827;SDS011;5971;49.646;8.568;2022-09-30T19:35:46;6.63;;;3.58;;
11827;SDS011;5971;49.646;8.568;2022-09-30T19:38:52;8.02;;;4.15;;
11827;SDS011;5971;49.646;8.568;2022-09-30T19:42:09;7.18;;;3.47;;
11827;SDS011;5971;49.646;8.568;2022-09-30T19:45:14;7.47;;;3.42;;
11827;SDS011;5971;49.646;8.568;2022-09-30T19:48:24;4.95;;;3.17;;
11827;SDS011;5971;49.646;8.568;2022-09-30T19:51:26;7.07;;;3.47;;
11827;SDS011;5971;49.646;8.568;2022-09-30T19:54:31;6.30;;;3.38;;
11827;SDS011;5971;49.646;8.568;2022-09-30T19:57:41;5.85;;;3.22;;
11827;SDS011;5971;49.646;8.568;2022-09-30T20:00:42;7.93;;;4.13;;
11827;SDS011;5971;49.646;8.568;2022-09-30T20:03:47;6.63;;;3.55;;
11827;SDS011;5971;49.646;8.568;2022-09-30T20:06:48;5.07;;;3.25;;
11827;SDS011;5971;49.646;8.568;2022-09-30T20:09:50;6.18;;;3.42;;
11827;SDS011;5971;49.646;8.568;2022-09-30T20:12:52;6.45;;;3.40;;
11827;SDS011;5971;49.646;8.568;2022-09-30T20:15:53;6.53;;;3.17;;
11827;SDS011;5971;49.646;8.568;2022-09-30T20:18:55;5.60;;;3.63;;
11827;SDS011;5971;49.646;8.568;2022-09-30T20:21:56;5.85;;;2.92;;
11827;SDS011;5971;49.646;8.568;2022-09-30T20:24:57;6.70;;;3.38;;
11827;SDS011;5971;49.646;8.568;2022-09-30T20:27:59;6.05;;;2.67;;
11827;SDS011;5971;49.646;8.568;2022-09-30T20:31:03;5.93;;;2.95;;
11827;SDS011;5971;49.646;8.568;2022-09-30T20:34:05;8.27;;;3.60;;
11827;SDS011;5971;49.646;8.568;2022-09-30T20:37:06;5.28;;;2.85;;
11827;SDS011;5971;49.646;8.568;2022-09-30T20:40:07;7.40;;;3.28;;
11827;SDS011;5971;49.646;8.568;2022-09-30T20:43:12;6.28;;;3.60;;
11827;SDS011;5971;49.646;8.568;2022-09-30T20:46:14;6.03;;;3.35;;
11827;SDS011;5971;49.646;8.568;2022-09-30T20:49:15;5.82;;;3.35;;
11827;SDS011;5971;49.646;8.568;2022-09-30T20:52:16;5.65;;;3.72;;
11827;SDS011;5971;49.646;8.568;2022-09-30T20:55:18;6.65;;;3.35;;
11827;SDS011;5971;49.646;8.568;2022-09-30T20:58:19;5.38;;;3.15;;
11827;SDS011;5971;49.646;8.568;2022-09-30T21:01:21;5.45;;;3.35;;
11827;SDS011;5971;49.646;8.568;2022-09-30T21:04:23;6.00;;;3.22;;
11827;SDS011;5971;49.646;8.568;2022-09-30T21:07:24;6.07;;;3.88;;